Terminal Aerodrome Forecast
Issued by NWS

Home | Current Version | Previous Version | Text Only | Print | Product List | Glossary Off
Versions: 1 2 3 4 5 6 7 8 9 10 11 12 13 14 15 16 17

000
FTUS41 KCLE 011727
TAFFDY
TAF
KFDY 011727Z 0118/0218 24008KT P6SM BKN045
     FM020000 21003KT P6SM SKC
     FM020800 21003KT 4SM BR SKC
      TEMPO 0211/0213 2SM BR
     FM021400 25008KT P6SM SCT040=

USA.gov is the U.S. government's official web portal to all federal, state and local government web resources and services.